createdAt,value
2023-05-16T00:01:30.522Z,19.05
2023-05-16T00:04:04.423Z,19.00
2023-05-16T00:06:36.685Z,19.83
2023-05-16T00:09:08.827Z,20.17
2023-05-16T00:11:41.000Z,18.40
2023-05-16T00:14:13.114Z,20.75
2023-05-16T00:16:48.070Z,21.95
2023-05-16T00:19:20.710Z,19.52
2023-05-16T00:21:53.171Z,19.92
2023-05-16T00:24:25.352Z,18.25
2023-05-16T00:26:57.431Z,18.67
2023-05-16T00:29:29.541Z,18.77
2023-05-16T00:32:04.729Z,22.35
2023-05-16T00:34:36.881Z,20.88
2023-05-16T00:37:09.032Z,19.63
2023-05-16T00:39:41.044Z,20.95
2023-05-16T00:42:13.101Z,20.88
2023-05-16T00:44:45.222Z,19.85
2023-05-16T00:47:20.680Z,21.92
2023-05-16T00:49:52.942Z,19.63
2023-05-16T00:52:25.582Z,20.75
2023-05-16T00:54:57.710Z,21.75
2023-05-16T00:57:30.641Z,27.80
2023-05-16T01:00:02.892Z,19.75
2023-05-16T01:02:38.501Z,26.50
2023-05-16T01:05:10.835Z,23.52
2023-05-16T01:07:42.903Z,26.60
2023-05-16T01:10:15.493Z,21.15
2023-05-16T01:12:57.312Z,24.60
2023-05-16T01:15:36.608Z,24.50
2023-05-16T01:18:19.240Z,21.30
2023-05-16T01:20:59.876Z,24.33
2023-05-16T01:23:49.724Z,21.90
2023-05-16T01:26:27.195Z,24.25
2023-05-16T01:28:59.734Z,25.80
2023-05-16T01:31:32.236Z,22.42
2023-05-16T01:34:04.396Z,22.70
2023-05-16T01:36:44.555Z,23.15
2023-05-16T01:39:23.092Z,22.00
2023-05-16T01:42:04.702Z,23.30
2023-05-16T01:44:53.480Z,22.38
2023-05-16T01:47:28.001Z,21.67
2023-05-16T01:50:09.003Z,21.88
2023-05-16T01:52:46.252Z,23.88
2023-05-16T01:55:23.965Z,21.30
2023-05-16T01:58:00.709Z,25.88
2023-05-16T02:00:32.977Z,26.35
2023-05-16T02:03:05.143Z,24.20
2023-05-16T02:05:37.740Z,24.23
2023-05-16T02:08:09.854Z,23.30
2023-05-16T02:10:42.133Z,25.58
2023-05-16T02:13:16.986Z,23.85
2023-05-16T02:15:49.059Z,26.00
2023-05-16T02:18:21.140Z,23.63
2023-05-16T02:20:53.259Z,24.02
2023-05-16T02:23:25.367Z,23.83
2023-05-16T02:25:57.404Z,24.38
2023-05-16T02:28:32.073Z,25.15
2023-05-16T02:31:04.710Z,26.25
2023-05-16T02:33:36.854Z,22.90
2023-05-16T02:36:09.894Z,21.23
2023-05-16T02:38:41.962Z,24.25
2023-05-16T02:41:14.094Z,22.63
2023-05-16T02:43:48.951Z,23.35
2023-05-16T02:46:23.101Z,20.13
2023-05-16T02:48:55.553Z,23.77
2023-05-16T02:51:28.650Z,21.60
2023-05-16T02:54:01.306Z,24.92
2023-05-16T02:56:33.423Z,24.98
2023-05-16T02:59:09.094Z,22.45
2023-05-16T03:01:43.554Z,25.98
2023-05-16T03:04:15.754Z,24.23
2023-05-16T03:06:47.901Z,23.63
2023-05-16T03:09:20.330Z,25.60
2023-05-16T03:11:52.421Z,22.52
2023-05-16T03:14:27.139Z,25.33
2023-05-16T03:17:02.312Z,27.88
2023-05-16T03:19:34.560Z,28.83
2023-05-16T03:22:06.668Z,26.15
2023-05-16T03:24:38.770Z,24.17
2023-05-16T03:27:11.248Z,24.05
2023-05-16T03:29:45.876Z,30.15
2023-05-16T03:32:18.074Z,26.52
2023-05-16T03:34:50.186Z,22.65
2023-05-16T03:37:22.452Z,27.00
2023-05-16T03:39:54.579Z,26.63
2023-05-16T03:42:26.637Z,25.50
2023-05-16T03:45:01.332Z,26.10
2023-05-16T03:47:33.727Z,25.10
2023-05-16T03:50:07.545Z,24.02
2023-05-16T03:52:39.652Z,23.60
2023-05-16T03:55:14.530Z,27.85
2023-05-16T03:57:48.006Z,28.73
2023-05-16T04:00:22.709Z,25.23
2023-05-16T04:02:54.951Z,23.70
2023-05-16T04:05:27.147Z,26.05
2023-05-16T04:07:59.415Z,26.83
2023-05-16T04:10:31.712Z,30.30
2023-05-16T04:13:03.776Z,28.27
2023-05-16T04:15:39.135Z,26.63
2023-05-16T04:18:11.224Z,28.30
2023-05-16T04:20:43.434Z,25.75
2023-05-16T04:23:15.582Z,28.45
2023-05-16T04:25:48.030Z,28.05
2023-05-16T04:28:20.138Z,26.88
2023-05-16T04:30:54.880Z,30.13
2023-05-16T04:33:26.939Z,27.95
2023-05-16T04:35:59.514Z,30.92
2023-05-16T04:38:32.153Z,32.38
2023-05-16T04:41:04.217Z,29.45
2023-05-16T04:43:36.686Z,26.30
2023-05-16T04:46:12.011Z,28.10
2023-05-16T04:48:44.210Z,25.27
2023-05-16T04:51:16.351Z,28.73
2023-05-16T04:53:48.430Z,26.55
2023-05-16T04:56:20.758Z,28.00
2023-05-16T04:58:52.849Z,26.90
2023-05-16T05:01:27.988Z,31.50
2023-05-16T05:04:00.136Z,28.40
2023-05-16T05:06:32.241Z,29.27
2023-05-16T05:09:12.998Z,30.70
2023-05-16T05:11:45.153Z,28.70
2023-05-16T05:14:19.997Z,28.92
2023-05-16T05:16:57.784Z,28.67
2023-05-16T05:19:29.842Z,31.50
2023-05-16T05:22:05.190Z,27.10
2023-05-16T05:24:40.312Z,29.65
2023-05-16T05:27:42.742Z,27.90
2023-05-16T05:30:24.328Z,25.75
2023-05-16T05:33:06.627Z,25.60
2023-05-16T05:35:44.845Z,28.50
2023-05-16T05:38:16.919Z,27.75
2023-05-16T05:40:49.851Z,29.88
2023-05-16T05:43:22.109Z,24.92
2023-05-16T05:45:55.754Z,26.90
2023-05-16T05:48:30.646Z,30.08
2023-05-16T05:51:02.882Z,29.52
2023-05-16T05:53:35.313Z,31.30
2023-05-16T05:56:07.802Z,24.60
2023-05-16T05:58:42.401Z,30.60
2023-05-16T06:01:14.732Z,30.02
2023-05-16T06:03:49.648Z,28.27
2023-05-16T06:06:21.765Z,31.40
2023-05-16T06:08:55.665Z,29.55
2023-05-16T06:11:27.827Z,31.70
2023-05-16T06:13:59.874Z,30.85
2023-05-16T06:16:32.011Z,25.85
2023-05-16T06:19:07.395Z,32.25
2023-05-16T06:21:43.120Z,29.67
2023-05-16T06:24:15.245Z,28.70
2023-05-16T06:26:50.324Z,30.67
2023-05-16T06:29:25.620Z,26.02
2023-05-16T06:31:57.867Z,25.83
2023-05-16T06:34:32.842Z,26.85
2023-05-16T06:37:05.622Z,23.77
2023-05-16T06:39:37.752Z,24.27
2023-05-16T06:42:11.212Z,25.90
2023-05-16T06:44:43.350Z,25.45
2023-05-16T06:47:16.941Z,26.35
2023-05-16T06:49:52.227Z,29.15
2023-05-16T06:52:25.675Z,30.80
2023-05-16T06:54:57.813Z,30.08
2023-05-16T06:57:30.317Z,29.15
2023-05-16T07:00:02.467Z,31.40
2023-05-16T07:02:34.741Z,31.58
2023-05-16T07:05:10.468Z,32.92
2023-05-16T07:07:42.788Z,34.63
2023-05-16T07:10:16.527Z,36.30
2023-05-16T07:12:49.038Z,34.92
2023-05-16T07:15:24.356Z,34.15
2023-05-16T07:17:57.488Z,39.03
2023-05-16T07:20:32.476Z,36.45
2023-05-16T07:23:04.911Z,37.03
2023-05-16T07:25:37.346Z,40.72
2023-05-16T07:28:09.503Z,39.95
2023-05-16T07:30:41.626Z,40.95
2023-05-16T07:33:13.827Z,36.50
2023-05-16T07:36:00.824Z,38.63
2023-05-16T07:38:41.824Z,39.78
2023-05-16T07:41:14.210Z,40.08
2023-05-16T07:43:46.506Z,36.92
2023-05-16T07:46:18.824Z,41.05
2023-05-16T07:48:56.721Z,39.78
2023-05-16T07:51:32.136Z,36.35
2023-05-16T07:54:04.591Z,39.92
2023-05-16T07:56:39.853Z,43.05
2023-05-16T07:59:12.066Z,39.05
2023-05-16T08:01:44.286Z,37.08
2023-05-16T08:04:16.412Z,35.78
2023-05-16T08:06:51.313Z,30.67
2023-05-16T08:09:26.553Z,31.98
2023-05-16T08:12:06.746Z,33.55
2023-05-16T08:14:39.115Z,33.95
2023-05-16T08:17:11.290Z,35.05
2023-05-16T08:19:43.769Z,31.98
2023-05-16T08:22:18.542Z,29.88
2023-05-16T08:24:57.918Z,32.47
2023-05-16T08:27:33.267Z,28.67
2023-05-16T08:30:07.172Z,29.08
2023-05-16T08:32:39.676Z,28.10
2023-05-16T08:35:13.221Z,25.73
2023-05-16T08:37:48.027Z,31.50
2023-05-16T08:40:20.786Z,27.40
2023-05-16T08:42:53.998Z,26.48
2023-05-16T08:45:26.655Z,28.02
2023-05-16T08:48:02.107Z,26.75
2023-05-16T08:50:37.453Z,20.33
2023-05-16T08:53:14.578Z,26.48
2023-05-16T08:55:52.492Z,24.13
2023-05-16T08:58:32.481Z,25.40
2023-05-16T09:01:09.073Z,23.83
2023-05-16T09:03:47.013Z,23.15
2023-05-16T09:06:19.436Z,29.30
2023-05-16T09:08:54.535Z,22.83
2023-05-16T09:11:30.325Z,22.70
2023-05-16T09:14:02.491Z,22.20
2023-05-16T09:16:34.664Z,21.60
2023-05-16T09:19:17.883Z,17.42
2023-05-16T09:22:02.283Z,16.95
2023-05-16T09:24:39.448Z,14.48
2023-05-16T09:27:14.167Z,11.88
2023-05-16T09:29:52.088Z,15.05
2023-05-16T09:32:25.222Z,11.52
2023-05-16T09:34:59.187Z,12.63
2023-05-16T09:37:31.408Z,14.52
2023-05-16T09:40:10.484Z,14.50
2023-05-16T09:42:46.182Z,12.65
2023-05-16T09:45:23.560Z,11.05
2023-05-16T09:48:07.225Z,12.02
2023-05-16T09:50:39.453Z,8.48
2023-05-16T09:53:14.082Z,9.25
2023-05-16T09:55:58.628Z,9.80
2023-05-16T09:58:31.559Z,7.88
2023-05-16T10:01:06.017Z,9.88
2023-05-16T10:03:40.732Z,8.65
2023-05-16T10:06:14.162Z,7.85
2023-05-16T10:08:47.832Z,6.60
2023-05-16T10:11:22.854Z,6.55
2023-05-16T10:13:56.408Z,7.25
2023-05-16T10:16:28.899Z,8.00
2023-05-16T10:19:02.102Z,8.27
2023-05-16T10:21:35.845Z,7.05
2023-05-16T10:24:10.076Z,5.60
2023-05-16T10:26:45.465Z,5.72
2023-05-16T10:29:24.870Z,6.47
2023-05-16T10:32:07.431Z,5.18
2023-05-16T10:34:46.658Z,6.97
2023-05-16T10:37:25.595Z,4.43
2023-05-16T10:39:58.315Z,4.72
2023-05-16T10:42:35.300Z,3.83
2023-05-16T10:45:17.653Z,4.50
2023-05-16T10:47:56.926Z,4.47
2023-05-16T10:50:37.104Z,4.35
2023-05-16T10:53:17.583Z,4.00
2023-05-16T10:56:05.563Z,3.70
2023-05-16T10:58:44.897Z,4.57
2023-05-16T11:01:22.411Z,3.72
2023-05-16T11:04:06.715Z,4.53
2023-05-16T11:06:47.467Z,4.47
2023-05-16T11:09:23.249Z,4.07
2023-05-16T11:12:00.316Z,2.72
2023-05-16T11:14:45.345Z,3.55
2023-05-16T11:17:23.554Z,4.00
2023-05-16T11:19:59.669Z,2.95
2023-05-16T11:22:33.761Z,3.35
2023-05-16T11:25:07.634Z,3.83
2023-05-16T11:27:44.481Z,5.60
2023-05-16T11:30:22.103Z,4.07
2023-05-16T11:32:56.093Z,3.45
2023-05-16T11:35:29.592Z,3.78
2023-05-16T11:38:02.022Z,2.95
2023-05-16T11:40:35.068Z,4.63
2023-05-16T11:43:07.648Z,2.60
2023-05-16T11:45:43.007Z,2.22
2023-05-16T11:48:24.686Z,2.53
2023-05-16T11:51:00.997Z,2.53
2023-05-16T11:53:42.679Z,2.55
2023-05-16T11:56:17.616Z,1.85
2023-05-16T11:58:51.002Z,2.50
2023-05-16T12:01:43.233Z,2.33
2023-05-16T12:04:23.644Z,1.95
2023-05-16T12:07:02.604Z,1.95
2023-05-16T12:09:43.249Z,2.03
2023-05-16T12:12:15.789Z,1.63
2023-05-16T12:14:48.162Z,3.05
2023-05-16T12:17:22.904Z,4.00
2023-05-16T12:19:55.237Z,2.08
2023-05-16T12:22:29.338Z,2.10
2023-05-16T12:25:21.659Z,2.33
2023-05-16T12:27:54.922Z,2.28
2023-05-16T12:30:28.990Z,2.10
2023-05-16T12:33:08.601Z,3.92
2023-05-16T12:35:42.838Z,1.52
2023-05-16T12:38:17.696Z,2.28
2023-05-16T12:40:58.000Z,1.92
2023-05-16T12:43:30.112Z,1.77
2023-05-16T12:46:02.869Z,2.83
2023-05-16T12:48:42.815Z,1.58
2023-05-16T12:51:17.245Z,1.98
2023-05-16T12:54:05.825Z,1.52
2023-05-16T12:56:44.936Z,1.75
2023-05-16T12:59:17.203Z,2.80
2023-05-16T13:01:49.387Z,2.90
2023-05-16T13:04:27.310Z,1.85
2023-05-16T13:07:00.044Z,2.55
2023-05-16T13:09:33.297Z,1.92
2023-05-16T13:12:08.713Z,2.47
2023-05-16T13:14:52.941Z,2.63
2023-05-16T13:17:25.267Z,5.00
2023-05-16T13:20:00.056Z,4.28
2023-05-16T13:22:33.263Z,2.05
2023-05-16T13:25:10.874Z,2.42
2023-05-16T13:27:43.429Z,5.97
2023-05-16T13:30:15.837Z,4.25
2023-05-16T13:32:48.764Z,2.75
2023-05-16T13:35:23.653Z,2.33
2023-05-16T13:37:58.960Z,3.20
2023-05-16T13:40:31.214Z,3.70
2023-05-16T13:43:03.479Z,2.70
2023-05-16T13:45:35.662Z,2.92
2023-05-16T13:48:08.218Z,2.47
2023-05-16T13:50:48.535Z,4.40
2023-05-16T13:53:23.763Z,3.75
2023-05-16T13:55:58.138Z,1.42
2023-05-16T13:58:30.690Z,3.80
2023-05-16T14:01:03.032Z,3.53
2023-05-16T14:03:36.935Z,3.42
2023-05-16T14:06:15.279Z,2.40
2023-05-16T14:08:50.562Z,2.45
2023-05-16T14:11:32.504Z,1.65
2023-05-16T14:14:05.187Z,1.48
2023-05-16T14:16:37.696Z,2.67
2023-05-16T14:19:18.161Z,1.75
2023-05-16T14:21:58.524Z,4.85
2023-05-16T14:24:31.159Z,5.32
2023-05-16T14:27:04.021Z,3.47
2023-05-16T14:29:41.713Z,3.38
2023-05-16T14:32:14.641Z,4.22
2023-05-16T14:34:46.957Z,3.30
2023-05-16T14:37:24.804Z,4.63
2023-05-16T14:39:58.602Z,5.25
2023-05-16T14:42:31.735Z,4.10
2023-05-16T14:45:07.208Z,2.63
2023-05-16T14:47:39.865Z,3.30
2023-05-16T14:50:12.752Z,2.95
2023-05-16T14:52:47.654Z,7.20
2023-05-16T14:55:21.070Z,2.67
2023-05-16T14:57:59.571Z,5.63
2023-05-16T15:00:32.484Z,2.28
2023-05-16T15:03:04.794Z,2.95
2023-05-16T15:05:37.456Z,4.13
2023-05-16T15:08:12.258Z,3.47
2023-05-16T15:10:44.453Z,1.83
2023-05-16T15:13:16.580Z,2.72
2023-05-16T15:15:49.036Z,3.13
2023-05-16T15:18:21.988Z,2.22
2023-05-16T15:20:54.174Z,3.40
2023-05-16T15:23:28.924Z,3.97
2023-05-16T15:26:01.097Z,4.55
2023-05-16T15:28:33.261Z,3.35
2023-05-16T15:31:06.237Z,4.53
2023-05-16T15:33:38.394Z,5.15
2023-05-16T15:36:10.937Z,5.65
2023-05-16T15:38:46.972Z,1.40
2023-05-16T15:41:31.909Z,4.05
2023-05-16T15:44:11.252Z,3.00
2023-05-16T15:46:43.430Z,1.60
2023-05-16T15:49:15.645Z,4.90
2023-05-16T15:51:47.818Z,3.00
2023-05-16T15:54:22.584Z,3.10
2023-05-16T15:56:54.719Z,2.42
2023-05-16T15:59:26.911Z,3.35
2023-05-16T16:01:59.289Z,2.00
2023-05-16T16:04:31.989Z,3.65
2023-05-16T16:07:04.277Z,1.73
2023-05-16T16:09:39.132Z,3.65
2023-05-16T16:12:11.379Z,2.35
2023-05-16T16:14:43.560Z,4.07
2023-05-16T16:17:16.672Z,4.80
2023-05-16T16:19:49.025Z,3.58
2023-05-16T16:22:22.423Z,4.13
2023-05-16T16:24:57.568Z,3.80
2023-05-16T16:27:29.654Z,3.58
2023-05-16T16:30:01.849Z,2.47
2023-05-16T16:32:34.006Z,4.28
2023-05-16T16:35:06.999Z,4.25
2023-05-16T16:37:39.222Z,4.43
2023-05-16T16:40:14.791Z,2.83
2023-05-16T16:42:47.155Z,2.63
2023-05-16T16:45:21.338Z,3.85
2023-05-16T16:47:54.651Z,1.95
2023-05-16T16:50:26.777Z,3.33
2023-05-16T16:53:01.442Z,2.05
2023-05-16T16:55:40.018Z,3.63
2023-05-16T16:58:12.910Z,2.90
2023-05-16T17:00:45.242Z,3.88
2023-05-16T17:03:17.654Z,2.25
2023-05-16T17:05:50.119Z,2.33
2023-05-16T17:08:22.349Z,3.28
2023-05-16T17:10:57.277Z,1.40
2023-05-16T17:13:33.840Z,6.03
2023-05-16T17:16:07.174Z,4.35
2023-05-16T17:18:40.785Z,4.22
2023-05-16T17:21:13.421Z,5.25
2023-05-16T17:23:45.622Z,2.47
2023-05-16T17:26:20.429Z,2.47
2023-05-16T17:28:52.742Z,1.40
2023-05-16T17:31:24.937Z,2.25
2023-05-16T17:33:57.189Z,2.70
2023-05-16T17:36:29.543Z,21.10
2023-05-16T17:39:01.758Z,10.10
2023-05-16T17:41:36.542Z,9.52
2023-05-16T17:44:09.221Z,17.42
2023-05-16T17:46:42.693Z,12.65
2023-05-16T17:49:15.228Z,13.82
2023-05-16T17:51:52.410Z,5.20
2023-05-16T17:54:27.372Z,6.32
2023-05-16T17:57:02.421Z,5.28
2023-05-16T17:59:40.420Z,3.67
2023-05-16T18:02:18.792Z,2.22
2023-05-16T18:04:54.414Z,1.98
2023-05-16T18:07:27.352Z,4.78
2023-05-16T18:10:02.160Z,3.75
2023-05-16T18:12:41.583Z,3.45
2023-05-16T18:15:13.811Z,2.58
2023-05-16T18:17:46.604Z,2.10
2023-05-16T18:20:19.466Z,3.35
2023-05-16T18:22:56.009Z,2.42
2023-05-16T18:25:31.350Z,1.77
2023-05-16T18:28:08.219Z,3.17
2023-05-16T18:30:43.345Z,4.10
2023-05-16T18:33:18.309Z,2.92
2023-05-16T18:35:50.791Z,3.25
2023-05-16T18:38:34.355Z,3.05
2023-05-16T18:41:07.674Z,4.07
2023-05-16T18:43:42.671Z,21.80
2023-05-16T18:46:14.835Z,2.75
2023-05-16T18:48:47.065Z,3.97
2023-05-16T18:51:28.609Z,6.78
2023-05-16T18:54:00.930Z,8.02
2023-05-16T18:56:33.487Z,6.57
2023-05-16T18:59:08.264Z,7.05
2023-05-16T19:01:41.601Z,11.80
2023-05-16T19:04:13.753Z,7.75
2023-05-16T19:06:46.330Z,5.43
2023-05-16T19:09:18.891Z,4.82
2023-05-16T19:11:54.215Z,1.95
2023-05-16T19:14:30.154Z,3.92
2023-05-16T19:17:02.330Z,4.20
2023-05-16T19:19:39.858Z,3.72
2023-05-16T19:24:48.239Z,2.72
2023-05-16T19:27:20.382Z,3.13
2023-05-16T19:29:55.181Z,1.50
2023-05-16T19:32:30.593Z,3.05
2023-05-16T19:35:05.157Z,2.65
2023-05-16T19:37:40.597Z,3.13
2023-05-16T19:40:14.145Z,3.50
2023-05-16T19:42:48.534Z,2.85
2023-05-16T19:45:23.370Z,6.25
2023-05-16T19:47:55.637Z,2.75
2023-05-16T19:50:28.063Z,2.55
2023-05-16T19:53:00.206Z,1.83
2023-05-16T19:55:33.994Z,3.08
2023-05-16T19:58:07.412Z,3.35
2023-05-16T20:00:42.138Z,2.65
2023-05-16T20:03:14.693Z,2.15
2023-05-16T20:05:49.078Z,3.05
2023-05-16T20:08:21.566Z,2.03
2023-05-16T20:10:57.463Z,3.13
2023-05-16T20:13:30.649Z,2.78
2023-05-16T20:16:06.258Z,4.75
2023-05-16T20:18:38.444Z,5.15
2023-05-16T20:21:10.696Z,3.22
2023-05-16T20:23:42.845Z,2.00
2023-05-16T20:26:15.464Z,3.38
2023-05-16T20:28:47.574Z,4.05
2023-05-16T20:31:22.596Z,2.60
2023-05-16T20:33:54.965Z,2.53
2023-05-16T20:36:27.296Z,5.70
2023-05-16T20:38:59.429Z,2.45
2023-05-16T20:41:33.076Z,1.83
2023-05-16T20:44:06.917Z,2.38
2023-05-16T20:46:43.381Z,3.97
2023-05-16T20:49:15.709Z,1.70
2023-05-16T20:51:48.020Z,2.05
2023-05-16T20:54:20.228Z,4.28
2023-05-16T20:56:52.564Z,1.65
2023-05-16T20:59:27.662Z,3.22
2023-05-16T21:02:02.633Z,3.15
2023-05-16T21:04:34.996Z,2.30
2023-05-16T21:07:08.592Z,3.33
2023-05-16T21:09:41.572Z,1.40
2023-05-16T21:12:13.994Z,5.82
2023-05-16T21:14:46.811Z,4.38
2023-05-16T21:17:21.604Z,3.40
2023-05-16T21:19:53.845Z,1.92
2023-05-16T21:22:26.051Z,2.42
2023-05-16T21:24:58.234Z,1.33
2023-05-16T21:27:30.457Z,3.45
2023-05-16T21:30:02.987Z,2.10
2023-05-16T21:32:37.782Z,1.45
2023-05-16T21:35:10.224Z,3.38
2023-05-16T21:37:42.308Z,3.40
2023-05-16T21:40:19.123Z,4.90
2023-05-16T21:42:52.456Z,0.75
2023-05-16T21:45:24.592Z,2.38
2023-05-16T21:47:59.337Z,1.23
2023-05-16T21:50:32.335Z,2.90
2023-05-16T21:53:04.551Z,2.55
2023-05-16T21:55:36.692Z,3.63
2023-05-16T21:58:09.250Z,2.90
2023-05-16T22:00:41.586Z,2.53
2023-05-16T22:03:19.128Z,2.30
2023-05-16T22:05:51.432Z,2.28
2023-05-16T22:08:23.545Z,3.85
2023-05-16T22:10:55.782Z,2.08
2023-05-16T22:13:27.899Z,2.97
2023-05-16T22:18:38.058Z,1.73
2023-05-16T22:21:10.605Z,4.07
2023-05-16T22:23:42.961Z,2.28
2023-05-16T22:26:15.083Z,5.07
2023-05-16T22:28:47.425Z,2.13
2023-05-16T22:31:19.605Z,1.95
2023-05-16T22:33:54.274Z,1.65
2023-05-16T22:36:26.424Z,2.47
2023-05-16T22:38:58.612Z,1.08
2023-05-16T22:41:30.798Z,2.10
2023-05-16T22:44:02.926Z,3.25
2023-05-16T22:46:37.506Z,2.60
2023-05-16T22:49:12.284Z,1.58
2023-05-16T22:51:44.658Z,2.30
2023-05-16T22:54:17.203Z,2.85
2023-05-16T22:56:49.277Z,3.78
2023-05-16T22:59:21.750Z,3.13
2023-05-16T23:01:53.951Z,3.33
2023-05-16T23:04:28.682Z,3.25
2023-05-16T23:07:00.796Z,1.70
2023-05-16T23:09:32.950Z,2.83
2023-05-16T23:12:05.625Z,2.15
2023-05-16T23:14:37.823Z,1.73
2023-05-16T23:17:10.019Z,2.70
2023-05-16T23:19:45.117Z,2.50
2023-05-16T23:22:17.290Z,3.83
2023-05-16T23:24:49.449Z,1.15
2023-05-16T23:27:21.864Z,2.50
2023-05-16T23:29:53.932Z,2.08
2023-05-16T23:32:26.286Z,4.57
2023-05-16T23:35:01.100Z,1.52
2023-05-16T23:37:33.398Z,2.60
2023-05-16T23:40:07.557Z,3.17
2023-05-16T23:42:41.314Z,0.80
2023-05-16T23:45:13.457Z,1.85
2023-05-16T23:47:46.173Z,3.40
2023-05-16T23:50:21.898Z,1.70
2023-05-16T23:52:54.032Z,1.65
2023-05-16T23:55:26.446Z,1.15
2023-05-16T23:57:58.779Z,1.73
